sensor_id;sensor_type;location;lat;lon;timestamp;P1;durP1;ratioP1;P2;durP2;ratioP2
46407;SDS011;32110;45.724;21.276;2022-08-06T00:01:49;10.80;;;6.20;;
46407;SDS011;32110;45.724;21.276;2022-08-06T00:04:15;10.68;;;5.80;;
46407;SDS011;32110;45.724;21.276;2022-08-06T00:06:41;9.30;;;6.30;;
46407;SDS011;32110;45.724;21.276;2022-08-06T00:09:06;12.02;;;5.82;;
46407;SDS011;32110;45.724;21.276;2022-08-06T00:11:32;10.55;;;5.57;;
46407;SDS011;32110;45.724;21.276;2022-08-06T00:13:57;9.57;;;6.22;;
46407;SDS011;32110;45.724;21.276;2022-08-06T00:16:23;8.43;;;6.07;;
46407;SDS011;32110;45.724;21.276;2022-08-06T00:18:48;9.10;;;6.15;;
46407;SDS011;32110;45.724;21.276;2022-08-06T00:21:13;10.13;;;6.97;;
46407;SDS011;32110;45.724;21.276;2022-08-06T00:23:39;7.93;;;6.72;;
46407;SDS011;32110;45.724;21.276;2022-08-06T00:26:04;11.27;;;6.53;;
46407;SDS011;32110;45.724;21.276;2022-08-06T00:28:30;12.07;;;6.32;;
46407;SDS011;32110;45.724;21.276;2022-08-06T00:30:55;10.00;;;6.82;;
46407;SDS011;32110;45.724;21.276;2022-08-06T00:33:21;12.40;;;6.55;;
46407;SDS011;32110;45.724;21.276;2022-08-06T00:35:46;11.18;;;6.80;;
46407;SDS011;32110;45.724;21.276;2022-08-06T00:38:11;12.55;;;7.43;;
46407;SDS011;32110;45.724;21.276;2022-08-06T00:40:37;11.38;;;7.50;;
46407;SDS011;32110;45.724;21.276;2022-08-06T00:43:04;9.68;;;7.30;;
46407;SDS011;32110;45.724;21.276;2022-08-06T00:45:30;12.30;;;7.40;;
46407;SDS011;32110;45.724;21.276;2022-08-06T00:47:56;13.77;;;7.78;;
46407;SDS011;32110;45.724;21.276;2022-08-06T00:50:21;9.73;;;7.20;;
46407;SDS011;32110;45.724;21.276;2022-08-06T00:52:47;12.30;;;7.82;;
46407;SDS011;32110;45.724;21.276;2022-08-06T00:55:12;9.90;;;7.47;;
46407;SDS011;32110;45.724;21.276;2022-08-06T00:57:38;13.02;;;7.97;;
46407;SDS011;32110;45.724;21.276;2022-08-06T01:00:04;14.38;;;7.88;;
46407;SDS011;32110;45.724;21.276;2022-08-06T01:02:30;11.07;;;7.85;;
46407;SDS011;32110;45.724;21.276;2022-08-06T01:04:56;16.92;;;8.65;;
46407;SDS011;32110;45.724;21.276;2022-08-06T01:07:22;12.05;;;8.05;;
46407;SDS011;32110;45.724;21.276;2022-08-06T01:09:48;15.63;;;8.60;;
46407;SDS011;32110;45.724;21.276;2022-08-06T01:12:14;12.80;;;8.05;;
46407;SDS011;32110;45.724;21.276;2022-08-06T01:14:40;15.07;;;7.75;;
46407;SDS011;32110;45.724;21.276;2022-08-06T01:17:14;13.80;;;8.32;;
46407;SDS011;32110;45.724;21.276;2022-08-06T01:28:31;13.02;;;7.57;;
46407;SDS011;32110;45.724;21.276;2022-08-06T01:31:21;12.27;;;7.72;;
46407;SDS011;32110;45.724;21.276;2022-08-06T01:33:51;10.02;;;7.15;;
46407;SDS011;32110;45.724;21.276;2022-08-06T01:36:23;15.10;;;8.55;;
46407;SDS011;32110;45.724;21.276;2022-08-06T01:38:56;8.90;;;7.00;;
46407;SDS011;32110;45.724;21.276;2022-08-06T01:41:25;15.10;;;7.05;;
46407;SDS011;32110;45.724;21.276;2022-08-06T01:44:14;8.00;;;6.72;;
46407;SDS011;32110;45.724;21.276;2022-08-06T01:46:46;8.32;;;6.65;;
46407;SDS011;32110;45.724;21.276;2022-08-06T01:49:15;9.35;;;6.90;;
46407;SDS011;32110;45.724;21.276;2022-08-06T01:51:45;14.50;;;6.97;;
46407;SDS011;32110;45.724;21.276;2022-08-06T01:54:14;9.40;;;6.88;;
46407;SDS011;32110;45.724;21.276;2022-08-06T01:56:41;11.52;;;7.45;;
46407;SDS011;32110;45.724;21.276;2022-08-06T01:59:12;9.45;;;6.88;;
46407;SDS011;32110;45.724;21.276;2022-08-06T02:01:40;13.55;;;7.47;;
46407;SDS011;32110;45.724;21.276;2022-08-06T02:04:06;9.77;;;6.95;;
46407;SDS011;32110;45.724;21.276;2022-08-06T02:06:34;11.05;;;7.05;;
46407;SDS011;32110;45.724;21.276;2022-08-06T02:09:05;20.80;;;7.03;;
46407;SDS011;32110;45.724;21.276;2022-08-06T02:11:34;11.70;;;7.45;;
46407;SDS011;32110;45.724;21.276;2022-08-06T02:14:02;10.82;;;6.90;;
46407;SDS011;32110;45.724;21.276;2022-08-06T02:16:35;11.53;;;6.87;;
46407;SDS011;32110;45.724;21.276;2022-08-06T02:19:04;10.95;;;7.22;;
46407;SDS011;32110;45.724;21.276;2022-08-06T02:21:31;11.90;;;7.05;;
46407;SDS011;32110;45.724;21.276;2022-08-06T02:23:58;9.45;;;6.10;;
46407;SDS011;32110;45.724;21.276;2022-08-06T02:26:27;11.32;;;6.25;;
46407;SDS011;32110;45.724;21.276;2022-08-06T02:28:55;9.27;;;6.43;;
46407;SDS011;32110;45.724;21.276;2022-08-06T02:31:23;9.48;;;6.53;;
46407;SDS011;32110;45.724;21.276;2022-08-06T02:33:49;9.07;;;5.72;;
46407;SDS011;32110;45.724;21.276;2022-08-06T02:36:17;12.02;;;6.45;;
46407;SDS011;32110;45.724;21.276;2022-08-06T02:41:24;10.77;;;6.55;;
46407;SDS011;32110;45.724;21.276;2022-08-06T02:43:56;9.75;;;6.15;;
46407;SDS011;32110;45.724;21.276;2022-08-06T02:46:26;9.85;;;6.32;;
46407;SDS011;32110;45.724;21.276;2022-08-06T02:49:01;11.23;;;6.70;;
46407;SDS011;32110;45.724;21.276;2022-08-06T02:51:40;14.10;;;6.05;;
46407;SDS011;32110;45.724;21.276;2022-08-06T02:54:06;11.13;;;6.13;;
46407;SDS011;32110;45.724;21.276;2022-08-06T02:56:32;10.88;;;6.25;;
46407;SDS011;32110;45.724;21.276;2022-08-06T02:59:00;11.02;;;5.97;;
46407;SDS011;32110;45.724;21.276;2022-08-06T03:01:30;14.50;;;6.68;;
46407;SDS011;32110;45.724;21.276;2022-08-06T03:03:58;15.15;;;6.07;;
46407;SDS011;32110;45.724;21.276;2022-08-06T03:06:27;11.00;;;6.10;;
46407;SDS011;32110;45.724;21.276;2022-08-06T03:08:56;17.83;;;6.35;;
46407;SDS011;32110;45.724;21.276;2022-08-06T03:11:24;16.75;;;6.40;;
46407;SDS011;32110;45.724;21.276;2022-08-06T03:13:51;14.55;;;5.80;;
46407;SDS011;32110;45.724;21.276;2022-08-06T03:16:17;22.27;;;6.22;;
46407;SDS011;32110;45.724;21.276;2022-08-06T03:18:44;6.47;;;5.60;;
46407;SDS011;32110;45.724;21.276;2022-08-06T03:21:11;10.85;;;6.35;;
46407;SDS011;32110;45.724;21.276;2022-08-06T03:23:37;9.32;;;5.68;;
46407;SDS011;32110;45.724;21.276;2022-08-06T03:26:04;7.10;;;5.60;;
46407;SDS011;32110;45.724;21.276;2022-08-06T03:28:32;9.65;;;6.13;;
46407;SDS011;32110;45.724;21.276;2022-08-06T03:30:59;13.07;;;5.05;;
46407;SDS011;32110;45.724;21.276;2022-08-06T03:33:26;6.80;;;4.78;;
46407;SDS011;32110;45.724;21.276;2022-08-06T03:35:54;8.02;;;4.82;;
46407;SDS011;32110;45.724;21.276;2022-08-06T03:38:21;7.45;;;5.05;;
46407;SDS011;32110;45.724;21.276;2022-08-06T03:40:48;7.05;;;4.85;;
46407;SDS011;32110;45.724;21.276;2022-08-06T03:43:15;12.32;;;5.10;;
46407;SDS011;32110;45.724;21.276;2022-08-06T03:45:44;9.55;;;5.30;;
46407;SDS011;32110;45.724;21.276;2022-08-06T03:48:16;9.25;;;4.93;;
46407;SDS011;32110;45.724;21.276;2022-08-06T03:53:16;6.53;;;5.00;;
46407;SDS011;32110;45.724;21.276;2022-08-06T03:55:44;7.93;;;5.10;;
46407;SDS011;32110;45.724;21.276;2022-08-06T03:58:12;7.82;;;5.03;;
46407;SDS011;32110;45.724;21.276;2022-08-06T04:00:40;10.43;;;5.07;;
46407;SDS011;32110;45.724;21.276;2022-08-06T04:03:10;7.18;;;5.22;;
46407;SDS011;32110;45.724;21.276;2022-08-06T04:05:37;12.50;;;6.28;;
46407;SDS011;32110;45.724;21.276;2022-08-06T04:08:05;9.82;;;6.43;;
46407;SDS011;32110;45.724;21.276;2022-08-06T04:10:36;10.45;;;6.50;;
46407;SDS011;32110;45.724;21.276;2022-08-06T04:13:07;11.20;;;5.90;;
46407;SDS011;32110;45.724;21.276;2022-08-06T04:15:35;10.13;;;6.25;;
46407;SDS011;32110;45.724;21.276;2022-08-06T04:18:01;11.02;;;6.40;;
46407;SDS011;32110;45.724;21.276;2022-08-06T04:20:29;15.63;;;7.25;;
46407;SDS011;32110;45.724;21.276;2022-08-06T04:22:56;10.27;;;5.90;;
46407;SDS011;32110;45.724;21.276;2022-08-06T04:25:22;7.95;;;5.30;;
46407;SDS011;32110;45.724;21.276;2022-08-06T04:27:49;9.13;;;5.65;;
46407;SDS011;32110;45.724;21.276;2022-08-06T04:30:16;12.65;;;5.38;;
46407;SDS011;32110;45.724;21.276;2022-08-06T04:32:42;8.18;;;5.13;;
46407;SDS011;32110;45.724;21.276;2022-08-06T04:35:09;8.50;;;5.25;;
46407;SDS011;32110;45.724;21.276;2022-08-06T04:37:35;10.07;;;4.90;;
46407;SDS011;32110;45.724;21.276;2022-08-06T04:40:01;7.13;;;5.00;;
46407;SDS011;32110;45.724;21.276;2022-08-06T04:42:27;8.63;;;4.95;;
46407;SDS011;32110;45.724;21.276;2022-08-06T04:44:53;9.25;;;5.03;;
46407;SDS011;32110;45.724;21.276;2022-08-06T04:47:19;11.82;;;5.10;;
46407;SDS011;32110;45.724;21.276;2022-08-06T04:49:46;8.90;;;5.38;;
46407;SDS011;32110;45.724;21.276;2022-08-06T04:52:24;13.75;;;5.18;;
46407;SDS011;32110;45.724;21.276;2022-08-06T04:54:51;10.27;;;5.00;;
46407;SDS011;32110;45.724;21.276;2022-08-06T04:57:17;10.38;;;5.03;;
46407;SDS011;32110;45.724;21.276;2022-08-06T04:59:43;12.32;;;5.10;;
46407;SDS011;32110;45.724;21.276;2022-08-06T05:02:08;8.82;;;4.90;;
46407;SDS011;32110;45.724;21.276;2022-08-06T05:04:34;11.63;;;5.30;;
46407;SDS011;32110;45.724;21.276;2022-08-06T05:07:01;12.80;;;5.20;;
46407;SDS011;32110;45.724;21.276;2022-08-06T05:09:34;13.70;;;5.60;;
46407;SDS011;32110;45.724;21.276;2022-08-06T05:12:01;13.73;;;6.93;;
46407;SDS011;32110;45.724;21.276;2022-08-06T05:14:43;17.70;;;5.88;;
46407;SDS011;32110;45.724;21.276;2022-08-06T05:17:14;20.30;;;6.45;;
46407;SDS011;32110;45.724;21.276;2022-08-06T05:19:45;13.70;;;6.68;;
46407;SDS011;32110;45.724;21.276;2022-08-06T05:22:15;14.15;;;7.28;;
46407;SDS011;32110;45.724;21.276;2022-08-06T05:24:42;13.07;;;7.10;;
46407;SDS011;32110;45.724;21.276;2022-08-06T05:27:11;18.65;;;7.20;;
46407;SDS011;32110;45.724;21.276;2022-08-06T05:29:36;14.63;;;7.22;;
46407;SDS011;32110;45.724;21.276;2022-08-06T05:32:05;13.27;;;7.57;;
46407;SDS011;32110;45.724;21.276;2022-08-06T05:34:30;14.00;;;8.07;;
46407;SDS011;32110;45.724;21.276;2022-08-06T05:36:56;11.80;;;6.50;;
46407;SDS011;32110;45.724;21.276;2022-08-06T05:39:21;10.65;;;6.88;;
46407;SDS011;32110;45.724;21.276;2022-08-06T05:41:48;11.60;;;6.70;;
46407;SDS011;32110;45.724;21.276;2022-08-06T05:44:14;11.55;;;7.00;;
46407;SDS011;32110;45.724;21.276;2022-08-06T05:46:49;12.90;;;6.30;;
46407;SDS011;32110;45.724;21.276;2022-08-06T05:49:18;11.75;;;5.95;;
46407;SDS011;32110;45.724;21.276;2022-08-06T05:51:52;9.45;;;5.95;;
46407;SDS011;32110;45.724;21.276;2022-08-06T05:56:47;12.30;;;5.95;;
46407;SDS011;32110;45.724;21.276;2022-08-06T05:59:20;13.98;;;6.10;;
46407;SDS011;32110;45.724;21.276;2022-08-06T06:01:49;9.93;;;5.47;;
46407;SDS011;32110;45.724;21.276;2022-08-06T06:04:15;8.75;;;5.57;;
46407;SDS011;32110;45.724;21.276;2022-08-06T06:06:42;11.82;;;5.75;;
46407;SDS011;32110;45.724;21.276;2022-08-06T06:09:08;8.75;;;5.88;;
46407;SDS011;32110;45.724;21.276;2022-08-06T06:11:34;9.75;;;4.90;;
46407;SDS011;32110;45.724;21.276;2022-08-06T06:14:02;8.52;;;5.10;;
46407;SDS011;32110;45.724;21.276;2022-08-06T06:24:43;9.70;;;4.70;;
46407;SDS011;32110;45.724;21.276;2022-08-06T06:27:26;5.32;;;4.13;;
46407;SDS011;32110;45.724;21.276;2022-08-06T06:30:06;6.85;;;4.40;;
46407;SDS011;32110;45.724;21.276;2022-08-06T06:32:42;9.27;;;4.90;;
46407;SDS011;32110;45.724;21.276;2022-08-06T06:44:11;5.00;;;4.32;;
46407;SDS011;32110;45.724;21.276;2022-08-06T06:46:45;7.97;;;4.30;;
46407;SDS011;32110;45.724;21.276;2022-08-06T06:49:34;11.32;;;5.32;;
46407;SDS011;32110;45.724;21.276;2022-08-06T06:52:17;7.50;;;4.28;;
46407;SDS011;32110;45.724;21.276;2022-08-06T06:54:50;8.02;;;5.00;;
46407;SDS011;32110;45.724;21.276;2022-08-06T06:57:25;9.27;;;4.50;;
46407;SDS011;32110;45.724;21.276;2022-08-06T06:59:56;10.10;;;4.75;;
46407;SDS011;32110;45.724;21.276;2022-08-06T07:02:25;5.90;;;3.95;;
46407;SDS011;32110;45.724;21.276;2022-08-06T07:04:55;8.48;;;4.18;;
46407;SDS011;32110;45.724;21.276;2022-08-06T07:07:22;9.30;;;4.60;;
46407;SDS011;32110;45.724;21.276;2022-08-06T07:09:49;8.45;;;5.05;;
46407;SDS011;32110;45.724;21.276;2022-08-06T07:12:18;13.93;;;4.55;;
46407;SDS011;32110;45.724;21.276;2022-08-06T07:14:47;6.60;;;4.47;;
46407;SDS011;32110;45.724;21.276;2022-08-06T07:17:15;9.80;;;4.55;;
46407;SDS011;32110;45.724;21.276;2022-08-06T07:19:44;10.10;;;4.82;;
46407;SDS011;32110;45.724;21.276;2022-08-06T07:22:11;21.42;;;4.78;;
46407;SDS011;32110;45.724;21.276;2022-08-06T07:24:38;6.20;;;4.70;;
46407;SDS011;32110;45.724;21.276;2022-08-06T07:27:06;16.00;;;4.78;;
46407;SDS011;32110;45.724;21.276;2022-08-06T07:29:33;12.02;;;4.40;;
46407;SDS011;32110;45.724;21.276;2022-08-06T07:32:00;14.65;;;4.47;;
46407;SDS011;32110;45.724;21.276;2022-08-06T07:34:27;6.32;;;3.97;;
46407;SDS011;32110;45.724;21.276;2022-08-06T07:36:54;8.48;;;4.00;;
46407;SDS011;32110;45.724;21.276;2022-08-06T07:39:22;6.32;;;4.00;;
46407;SDS011;32110;45.724;21.276;2022-08-06T07:41:52;6.70;;;4.32;;
46407;SDS011;32110;45.724;21.276;2022-08-06T07:44:22;7.82;;;4.45;;
46407;SDS011;32110;45.724;21.276;2022-08-06T07:46:49;9.95;;;4.32;;
46407;SDS011;32110;45.724;21.276;2022-08-06T07:49:21;8.23;;;4.82;;
46407;SDS011;32110;45.724;21.276;2022-08-06T07:51:48;10.65;;;4.65;;
46407;SDS011;32110;45.724;21.276;2022-08-06T07:54:16;6.38;;;4.55;;
46407;SDS011;32110;45.724;21.276;2022-08-06T07:56:43;9.60;;;5.00;;
46407;SDS011;32110;45.724;21.276;2022-08-06T07:59:09;6.20;;;4.18;;
46407;SDS011;32110;45.724;21.276;2022-08-06T08:01:36;10.43;;;4.72;;
46407;SDS011;32110;45.724;21.276;2022-08-06T08:04:06;9.68;;;3.80;;
46407;SDS011;32110;45.724;21.276;2022-08-06T08:06:52;9.85;;;4.00;;
46407;SDS011;32110;45.724;21.276;2022-08-06T08:09:18;5.05;;;3.97;;
46407;SDS011;32110;45.724;21.276;2022-08-06T08:14:14;10.50;;;4.10;;
46407;SDS011;32110;45.724;21.276;2022-08-06T08:16:42;5.90;;;3.90;;
46407;SDS011;32110;45.724;21.276;2022-08-06T08:21:56;4.47;;;3.85;;
46407;SDS011;32110;45.724;21.276;2022-08-06T08:24:31;5.90;;;3.78;;
46407;SDS011;32110;45.724;21.276;2022-08-06T08:26:57;7.85;;;3.80;;
46407;SDS011;32110;45.724;21.276;2022-08-06T08:29:24;4.57;;;4.07;;
46407;SDS011;32110;45.724;21.276;2022-08-06T08:31:50;5.70;;;3.72;;
46407;SDS011;32110;45.724;21.276;2022-08-06T08:34:15;6.72;;;4.10;;
46407;SDS011;32110;45.724;21.276;2022-08-06T08:36:41;5.65;;;4.10;;
46407;SDS011;32110;45.724;21.276;2022-08-06T08:39:07;10.10;;;4.13;;
46407;SDS011;32110;45.724;21.276;2022-08-06T08:41:33;7.75;;;4.15;;
46407;SDS011;32110;45.724;21.276;2022-08-06T08:44:07;11.43;;;4.03;;
46407;SDS011;32110;45.724;21.276;2022-08-06T08:46:42;4.10;;;3.67;;
46407;SDS011;32110;45.724;21.276;2022-08-06T08:49:19;6.50;;;3.67;;
46407;SDS011;32110;45.724;21.276;2022-08-06T08:51:47;4.90;;;3.75;;
46407;SDS011;32110;45.724;21.276;2022-08-06T08:54:16;8.02;;;4.00;;
46407;SDS011;32110;45.724;21.276;2022-08-06T08:56:46;6.38;;;3.50;;
46407;SDS011;32110;45.724;21.276;2022-08-06T08:59:12;7.57;;;3.90;;
46407;SDS011;32110;45.724;21.276;2022-08-06T09:01:39;5.70;;;3.47;;
46407;SDS011;32110;45.724;21.276;2022-08-06T09:04:05;3.80;;;3.33;;
46407;SDS011;32110;45.724;21.276;2022-08-06T09:06:32;3.97;;;3.40;;
46407;SDS011;32110;45.724;21.276;2022-08-06T09:09:00;8.57;;;3.28;;
46407;SDS011;32110;45.724;21.276;2022-08-06T09:11:28;5.97;;;3.30;;
46407;SDS011;32110;45.724;21.276;2022-08-06T09:13:53;4.47;;;3.42;;
46407;SDS011;32110;45.724;21.276;2022-08-06T09:16:19;6.85;;;3.90;;
46407;SDS011;32110;45.724;21.276;2022-08-06T09:18:45;8.63;;;3.42;;
46407;SDS011;32110;45.724;21.276;2022-08-06T09:21:10;7.72;;;3.28;;
46407;SDS011;32110;45.724;21.276;2022-08-06T09:23:36;3.83;;;3.08;;
46407;SDS011;32110;45.724;21.276;2022-08-06T09:26:03;5.00;;;3.22;;
46407;SDS011;32110;45.724;21.276;2022-08-06T09:28:38;4.38;;;3.42;;
46407;SDS011;32110;45.724;21.276;2022-08-06T09:31:15;5.60;;;3.25;;
46407;SDS011;32110;45.724;21.276;2022-08-06T09:33:43;7.53;;;3.38;;
46407;SDS011;32110;45.724;21.276;2022-08-06T09:36:18;6.75;;;3.33;;
46407;SDS011;32110;45.724;21.276;2022-08-06T09:38:49;4.22;;;2.80;;
46407;SDS011;32110;45.724;21.276;2022-08-06T09:41:18;5.68;;;2.78;;
46407;SDS011;32110;45.724;21.276;2022-08-06T09:43:46;6.15;;;2.70;;
46407;SDS011;32110;45.724;21.276;2022-08-06T09:46:13;4.30;;;3.03;;
46407;SDS011;32110;45.724;21.276;2022-08-06T09:48:58;7.68;;;2.80;;
46407;SDS011;32110;45.724;21.276;2022-08-06T09:51:25;3.03;;;2.55;;
46407;SDS011;32110;45.724;21.276;2022-08-06T09:53:52;4.30;;;2.65;;
46407;SDS011;32110;45.724;21.276;2022-08-06T09:56:22;3.00;;;2.58;;
46407;SDS011;32110;45.724;21.276;2022-08-06T09:58:48;3.20;;;2.72;;
46407;SDS011;32110;45.724;21.276;2022-08-06T10:01:23;5.20;;;2.63;;
46407;SDS011;32110;45.724;21.276;2022-08-06T10:03:51;4.32;;;2.60;;
46407;SDS011;32110;45.724;21.276;2022-08-06T10:06:18;3.63;;;2.47;;
46407;SDS011;32110;45.724;21.276;2022-08-06T10:08:51;5.63;;;2.60;;
46407;SDS011;32110;45.724;21.276;2022-08-06T10:11:35;3.15;;;2.30;;
46407;SDS011;32110;45.724;21.276;2022-08-06T10:14:04;7.45;;;2.60;;
46407;SDS011;32110;45.724;21.276;2022-08-06T10:16:30;4.82;;;2.53;;
46407;SDS011;32110;45.724;21.276;2022-08-06T10:18:56;4.03;;;2.38;;
46407;SDS011;32110;45.724;21.276;2022-08-06T10:21:24;4.03;;;2.40;;
46407;SDS011;32110;45.724;21.276;2022-08-06T10:26:25;3.03;;;2.47;;
46407;SDS011;32110;45.724;21.276;2022-08-06T10:28:52;3.88;;;2.55;;
46407;SDS011;32110;45.724;21.276;2022-08-06T10:31:18;4.07;;;2.30;;
46407;SDS011;32110;45.724;21.276;2022-08-06T10:36:36;4.10;;;2.83;;
46407;SDS011;32110;45.724;21.276;2022-08-06T10:39:09;2.92;;;2.30;;
46407;SDS011;32110;45.724;21.276;2022-08-06T10:41:36;6.18;;;2.42;;
46407;SDS011;32110;45.724;21.276;2022-08-06T10:44:04;4.70;;;2.53;;
46407;SDS011;32110;45.724;21.276;2022-08-06T10:46:31;5.18;;;2.55;;
46407;SDS011;32110;45.724;21.276;2022-08-06T10:48:56;2.80;;;2.60;;
46407;SDS011;32110;45.724;21.276;2022-08-06T10:51:23;3.70;;;2.70;;
46407;SDS011;32110;45.724;21.276;2022-08-06T10:53:49;5.88;;;2.75;;
46407;SDS011;32110;45.724;21.276;2022-08-06T10:56:16;4.63;;;2.30;;
46407;SDS011;32110;45.724;21.276;2022-08-06T10:58:43;4.00;;;2.60;;
46407;SDS011;32110;45.724;21.276;2022-08-06T11:04:17;2.67;;;2.47;;
46407;SDS011;32110;45.724;21.276;2022-08-06T11:09:40;3.67;;;2.50;;
46407;SDS011;32110;45.724;21.276;2022-08-06T11:12:31;5.65;;;2.40;;
46407;SDS011;32110;45.724;21.276;2022-08-06T11:15:18;3.13;;;2.40;;
46407;SDS011;32110;45.724;21.276;2022-08-06T11:17:48;2.45;;;2.25;;
46407;SDS011;32110;45.724;21.276;2022-08-06T11:22:57;2.45;;;2.25;;
46407;SDS011;32110;45.724;21.276;2022-08-06T11:28:10;3.03;;;2.30;;
46407;SDS011;32110;45.724;21.276;2022-08-06T11:33:07;4.07;;;2.50;;
46407;SDS011;32110;45.724;21.276;2022-08-06T11:38:01;3.08;;;2.78;;
46407;SDS011;32110;45.724;21.276;2022-08-06T11:40:52;5.00;;;2.60;;
46407;SDS011;32110;45.724;21.276;2022-08-06T11:51:38;4.15;;;2.50;;
46407;SDS011;32110;45.724;21.276;2022-08-06T11:54:12;2.58;;;2.10;;
46407;SDS011;32110;45.724;21.276;2022-08-06T11:59:27;2.67;;;2.47;;
46407;SDS011;32110;45.724;21.276;2022-08-06T12:01:54;2.45;;;2.15;;
46407;SDS011;32110;45.724;21.276;2022-08-06T12:14:58;2.90;;;2.47;;
46407;SDS011;32110;45.724;21.276;2022-08-06T12:17:25;3.30;;;2.22;;
46407;SDS011;32110;45.724;21.276;2022-08-06T12:19:53;2.80;;;2.40;;
46407;SDS011;32110;45.724;21.276;2022-08-06T12:22:22;2.28;;;2.08;;
46407;SDS011;32110;45.724;21.276;2022-08-06T12:24:49;2.80;;;2.15;;
46407;SDS011;32110;45.724;21.276;2022-08-06T12:27:17;2.42;;;2.20;;
46407;SDS011;32110;45.724;21.276;2022-08-06T12:29:43;14.43;;;2.75;;
46407;SDS011;32110;45.724;21.276;2022-08-06T12:34:52;5.78;;;1.95;;
46407;SDS011;32110;45.724;21.276;2022-08-06T12:37:19;5.13;;;2.53;;
46407;SDS011;32110;45.724;21.276;2022-08-06T12:39:45;7.45;;;2.10;;
46407;SDS011;32110;45.724;21.276;2022-08-06T12:42:30;3.17;;;2.38;;
46407;SDS011;32110;45.724;21.276;2022-08-06T12:44:56;3.22;;;2.10;;
46407;SDS011;32110;45.724;21.276;2022-08-06T12:47:22;4.53;;;2.20;;
46407;SDS011;32110;45.724;21.276;2022-08-06T12:49:51;2.88;;;2.40;;
46407;SDS011;32110;45.724;21.276;2022-08-06T12:52:18;3.97;;;2.00;;
46407;SDS011;32110;45.724;21.276;2022-08-06T12:54:46;2.42;;;1.92;;
46407;SDS011;32110;45.724;21.276;2022-08-06T12:57:19;4.55;;;2.15;;
46407;SDS011;32110;45.724;21.276;2022-08-06T12:59:52;2.17;;;1.98;;
46407;SDS011;32110;45.724;21.276;2022-08-06T13:02:19;3.85;;;2.10;;
46407;SDS011;32110;45.724;21.276;2022-08-06T13:04:48;2.35;;;2.15;;
46407;SDS011;32110;45.724;21.276;2022-08-06T13:07:15;5.53;;;2.30;;
46407;SDS011;32110;45.724;21.276;2022-08-06T13:09:43;2.65;;;1.95;;
46407;SDS011;32110;45.724;21.276;2022-08-06T13:12:18;4.38;;;2.42;;
46407;SDS011;32110;45.724;21.276;2022-08-06T13:14:55;3.63;;;2.20;;
46407;SDS011;32110;45.724;21.276;2022-08-06T13:17:23;2.88;;;2.58;;
46407;SDS011;32110;45.724;21.276;2022-08-06T13:22:17;2.90;;;2.35;;
46407;SDS011;32110;45.724;21.276;2022-08-06T13:24:43;4.18;;;2.30;;
46407;SDS011;32110;45.724;21.276;2022-08-06T13:27:08;6.30;;;2.40;;
46407;SDS011;32110;45.724;21.276;2022-08-06T13:29:34;2.80;;;2.20;;
46407;SDS011;32110;45.724;21.276;2022-08-06T13:32:02;2.33;;;2.13;;
46407;SDS011;32110;45.724;21.276;2022-08-06T13:34:49;4.78;;;2.10;;
46407;SDS011;32110;45.724;21.276;2022-08-06T13:37:17;2.50;;;2.30;;
46407;SDS011;32110;45.724;21.276;2022-08-06T13:40:02;3.60;;;2.17;;
46407;SDS011;32110;45.724;21.276;2022-08-06T13:42:28;5.50;;;2.60;;
46407;SDS011;32110;45.724;21.276;2022-08-06T13:44:54;3.78;;;2.30;;
46407;SDS011;32110;45.724;21.276;2022-08-06T13:47:26;4.10;;;2.33;;
46407;SDS011;32110;45.724;21.276;2022-08-06T13:49:53;3.72;;;2.25;;
46407;SDS011;32110;45.724;21.276;2022-08-06T13:52:18;3.28;;;2.10;;
46407;SDS011;32110;45.724;21.276;2022-08-06T13:54:44;2.75;;;2.08;;
46407;SDS011;32110;45.724;21.276;2022-08-06T13:57:09;8.10;;;2.78;;
46407;SDS011;32110;45.724;21.276;2022-08-06T13:59:36;2.55;;;2.35;;
46407;SDS011;32110;45.724;21.276;2022-08-06T14:02:03;6.20;;;2.70;;
46407;SDS011;32110;45.724;21.276;2022-08-06T14:04:29;6.53;;;2.60;;
46407;SDS011;32110;45.724;21.276;2022-08-06T14:06:56;4.40;;;2.72;;
46407;SDS011;32110;45.724;21.276;2022-08-06T14:09:28;6.05;;;2.97;;
46407;SDS011;32110;45.724;21.276;2022-08-06T14:11:55;6.03;;;3.03;;
46407;SDS011;32110;45.724;21.276;2022-08-06T14:14:22;4.57;;;2.95;;
46407;SDS011;32110;45.724;21.276;2022-08-06T14:16:49;4.47;;;2.97;;
46407;SDS011;32110;45.724;21.276;2022-08-06T14:19:15;14.18;;;5.57;;
46407;SDS011;32110;45.724;21.276;2022-08-06T14:21:41;10.50;;;6.63;;
46407;SDS011;32110;45.724;21.276;2022-08-06T14:24:06;5.82;;;3.33;;
46407;SDS011;32110;45.724;21.276;2022-08-06T14:26:32;5.65;;;3.75;;
46407;SDS011;32110;45.724;21.276;2022-08-06T14:28:57;3.08;;;2.78;;
46407;SDS011;32110;45.724;21.276;2022-08-06T14:31:23;4.80;;;2.50;;
46407;SDS011;32110;45.724;21.276;2022-08-06T14:33:49;3.85;;;2.28;;
46407;SDS011;32110;45.724;21.276;2022-08-06T14:36:14;4.20;;;2.28;;
46407;SDS011;32110;45.724;21.276;2022-08-06T14:38:40;2.60;;;2.40;;
46407;SDS011;32110;45.724;21.276;2022-08-06T14:41:05;2.97;;;2.67;;
46407;SDS011;32110;45.724;21.276;2022-08-06T14:43:49;3.00;;;2.38;;
46407;SDS011;32110;45.724;21.276;2022-08-06T14:46:33;2.80;;;2.00;;
46407;SDS011;32110;45.724;21.276;2022-08-06T14:49:00;2.38;;;2.15;;
46407;SDS011;32110;45.724;21.276;2022-08-06T14:51:26;3.08;;;2.33;;
46407;SDS011;32110;45.724;21.276;2022-08-06T14:53:52;2.90;;;2.25;;
46407;SDS011;32110;45.724;21.276;2022-08-06T14:56:18;2.35;;;2.15;;
46407;SDS011;32110;45.724;21.276;2022-08-06T14:58:43;2.60;;;2.20;;
46407;SDS011;32110;45.724;21.276;2022-08-06T15:01:09;3.15;;;2.38;;
46407;SDS011;32110;45.724;21.276;2022-08-06T15:03:34;3.33;;;2.20;;
46407;SDS011;32110;45.724;21.276;2022-08-06T15:05:59;2.22;;;2.03;;
46407;SDS011;32110;45.724;21.276;2022-08-06T15:08:25;3.70;;;2.40;;
46407;SDS011;32110;45.724;21.276;2022-08-06T15:10:51;3.65;;;2.40;;
46407;SDS011;32110;45.724;21.276;2022-08-06T15:13:19;3.65;;;2.63;;
46407;SDS011;32110;45.724;21.276;2022-08-06T15:15:47;2.67;;;2.47;;
46407;SDS011;32110;45.724;21.276;2022-08-06T15:18:13;2.22;;;2.10;;
46407;SDS011;32110;45.724;21.276;2022-08-06T15:20:40;2.80;;;2.27;;
46407;SDS011;32110;45.724;21.276;2022-08-06T15:23:06;2.85;;;2.40;;
46407;SDS011;32110;45.724;21.276;2022-08-06T15:25:31;2.63;;;2.33;;
46407;SDS011;32110;45.724;21.276;2022-08-06T15:27:57;2.42;;;2.22;;
46407;SDS011;32110;45.724;21.276;2022-08-06T15:30:22;3.67;;;2.30;;
46407;SDS011;32110;45.724;21.276;2022-08-06T15:32:47;2.42;;;2.22;;
46407;SDS011;32110;45.724;21.276;2022-08-06T15:35:13;3.50;;;2.08;;
46407;SDS011;32110;45.724;21.276;2022-08-06T15:37:38;2.60;;;2.40;;
46407;SDS011;32110;45.724;21.276;2022-08-06T15:40:04;5.82;;;2.10;;
46407;SDS011;32110;45.724;21.276;2022-08-06T15:42:30;3.17;;;2.30;;
46407;SDS011;32110;45.724;21.276;2022-08-06T15:44:56;2.53;;;2.20;;
46407;SDS011;32110;45.724;21.276;2022-08-06T15:47:21;3.13;;;2.00;;
46407;SDS011;32110;45.724;21.276;2022-08-06T15:49:47;2.20;;;2.00;;
46407;SDS011;32110;45.724;21.276;2022-08-06T15:52:12;3.15;;;2.10;;
46407;SDS011;32110;45.724;21.276;2022-08-06T15:54:40;2.15;;;1.95;;
46407;SDS011;32110;45.724;21.276;2022-08-06T15:57:05;6.15;;;2.55;;
46407;SDS011;32110;45.724;21.276;2022-08-06T15:59:31;4.43;;;2.35;;
46407;SDS011;32110;45.724;21.276;2022-08-06T16:01:56;3.00;;;2.70;;
46407;SDS011;32110;45.724;21.276;2022-08-06T16:04:22;6.93;;;2.40;;
46407;SDS011;32110;45.724;21.276;2022-08-06T16:06:47;2.60;;;2.40;;